sensor_id;sensor_type;location;lat;lon;timestamp;P1;durP1;ratioP1;P2;durP2;ratioP2
50291;SDS011;36190;54.980;73.388;2023-04-09T00:02:17;8.13;;;3.58;;
50291;SDS011;36190;54.980;73.388;2023-04-09T00:04:45;10.70;;;3.00;;
50291;SDS011;36190;54.980;73.388;2023-04-09T00:07:12;10.40;;;3.28;;
50291;SDS011;36190;54.980;73.388;2023-04-09T00:09:40;8.90;;;2.97;;
50291;SDS011;36190;54.980;73.388;2023-04-09T00:12:07;11.05;;;3.13;;
50291;SDS011;36190;54.980;73.388;2023-04-09T00:14:35;9.60;;;3.30;;
50291;SDS011;36190;54.980;73.388;2023-04-09T00:17:04;10.98;;;3.55;;
50291;SDS011;36190;54.980;73.388;2023-04-09T00:19:31;8.13;;;3.03;;
50291;SDS011;36190;54.980;73.388;2023-04-09T00:21:59;8.50;;;3.08;;
50291;SDS011;36190;54.980;73.388;2023-04-09T00:24:27;11.20;;;3.00;;
50291;SDS011;36190;54.980;73.388;2023-04-09T00:26:54;10.00;;;3.50;;
50291;SDS011;36190;54.980;73.388;2023-04-09T00:29:21;8.60;;;3.00;;
50291;SDS011;36190;54.980;73.388;2023-04-09T00:31:49;9.02;;;3.20;;
50291;SDS011;36190;54.980;73.388;2023-04-09T00:34:18;8.80;;;3.10;;
50291;SDS011;36190;54.980;73.388;2023-04-09T00:36:45;11.52;;;3.03;;
50291;SDS011;36190;54.980;73.388;2023-04-09T00:39:12;11.23;;;3.35;;
50291;SDS011;36190;54.980;73.388;2023-04-09T00:41:40;9.93;;;3.33;;
50291;SDS011;36190;54.980;73.388;2023-04-09T00:44:07;9.32;;;3.50;;
50291;SDS011;36190;54.980;73.388;2023-04-09T00:46:35;9.10;;;3.03;;
50291;SDS011;36190;54.980;73.388;2023-04-09T00:49:02;10.38;;;3.45;;
50291;SDS011;36190;54.980;73.388;2023-04-09T00:51:32;6.60;;;2.70;;
50291;SDS011;36190;54.980;73.388;2023-04-09T00:54:00;10.48;;;3.20;;
50291;SDS011;36190;54.980;73.388;2023-04-09T00:56:27;10.85;;;3.40;;
50291;SDS011;36190;54.980;73.388;2023-04-09T00:58:56;8.20;;;2.60;;
50291;SDS011;36190;54.980;73.388;2023-04-09T01:01:23;11.73;;;3.88;;
50291;SDS011;36190;54.980;73.388;2023-04-09T01:03:51;9.05;;;2.80;;
50291;SDS011;36190;54.980;73.388;2023-04-09T01:06:20;10.35;;;3.38;;
50291;SDS011;36190;54.980;73.388;2023-04-09T01:11:27;8.48;;;3.45;;
50291;SDS011;36190;54.980;73.388;2023-04-09T01:14:04;8.07;;;3.22;;
50291;SDS011;36190;54.980;73.388;2023-04-09T01:16:38;10.82;;;3.58;;
50291;SDS011;36190;54.980;73.388;2023-04-09T01:19:15;6.15;;;2.78;;
50291;SDS011;36190;54.980;73.388;2023-04-09T01:21:53;10.60;;;3.58;;
50291;SDS011;36190;54.980;73.388;2023-04-09T01:24:28;9.50;;;3.45;;
50291;SDS011;36190;54.980;73.388;2023-04-09T01:27:03;15.55;;;3.35;;
50291;SDS011;36190;54.980;73.388;2023-04-09T01:29:34;10.80;;;3.75;;
50291;SDS011;36190;54.980;73.388;2023-04-09T01:32:05;8.23;;;3.30;;
50291;SDS011;36190;54.980;73.388;2023-04-09T01:34:33;9.65;;;3.40;;
50291;SDS011;36190;54.980;73.388;2023-04-09T01:37:03;7.00;;;2.83;;
50291;SDS011;36190;54.980;73.388;2023-04-09T01:39:32;16.02;;;3.80;;
50291;SDS011;36190;54.980;73.388;2023-04-09T01:41:59;10.55;;;3.97;;
50291;SDS011;36190;54.980;73.388;2023-04-09T01:44:28;10.55;;;3.72;;
50291;SDS011;36190;54.980;73.388;2023-04-09T01:46:58;11.15;;;3.75;;
50291;SDS011;36190;54.980;73.388;2023-04-09T01:49:27;10.02;;;3.35;;
50291;SDS011;36190;54.980;73.388;2023-04-09T01:51:55;13.35;;;3.42;;
50291;SDS011;36190;54.980;73.388;2023-04-09T01:54:22;15.55;;;3.70;;
50291;SDS011;36190;54.980;73.388;2023-04-09T01:56:50;11.05;;;4.18;;
50291;SDS011;36190;54.980;73.388;2023-04-09T01:59:17;12.32;;;4.00;;
50291;SDS011;36190;54.980;73.388;2023-04-09T02:01:45;10.10;;;4.32;;
50291;SDS011;36190;54.980;73.388;2023-04-09T02:04:19;11.50;;;3.70;;
50291;SDS011;36190;54.980;73.388;2023-04-09T02:06:52;11.07;;;3.75;;
50291;SDS011;36190;54.980;73.388;2023-04-09T02:09:25;10.60;;;3.83;;
50291;SDS011;36190;54.980;73.388;2023-04-09T02:11:57;11.30;;;4.45;;
50291;SDS011;36190;54.980;73.388;2023-04-09T02:14:28;11.05;;;4.38;;
50291;SDS011;36190;54.980;73.388;2023-04-09T02:16:58;10.50;;;3.83;;
50291;SDS011;36190;54.980;73.388;2023-04-09T02:19:38;12.73;;;3.88;;
50291;SDS011;36190;54.980;73.388;2023-04-09T02:22:06;10.43;;;4.50;;
50291;SDS011;36190;54.980;73.388;2023-04-09T02:24:34;10.07;;;4.20;;
50291;SDS011;36190;54.980;73.388;2023-04-09T02:27:02;12.38;;;4.40;;
50291;SDS011;36190;54.980;73.388;2023-04-09T02:29:30;10.60;;;3.95;;
50291;SDS011;36190;54.980;73.388;2023-04-09T02:31:58;17.25;;;4.53;;
50291;SDS011;36190;54.980;73.388;2023-04-09T02:34:26;12.45;;;3.83;;
50291;SDS011;36190;54.980;73.388;2023-04-09T02:36:55;12.68;;;4.30;;
50291;SDS011;36190;54.980;73.388;2023-04-09T02:39:23;14.45;;;4.32;;
50291;SDS011;36190;54.980;73.388;2023-04-09T02:41:51;13.80;;;4.50;;
50291;SDS011;36190;54.980;73.388;2023-04-09T02:44:18;17.17;;;4.78;;
50291;SDS011;36190;54.980;73.388;2023-04-09T02:46:46;10.88;;;4.13;;
50291;SDS011;36190;54.980;73.388;2023-04-09T02:49:14;16.30;;;4.50;;
50291;SDS011;36190;54.980;73.388;2023-04-09T02:51:41;16.25;;;4.18;;
50291;SDS011;36190;54.980;73.388;2023-04-09T02:54:10;14.52;;;4.70;;
50291;SDS011;36190;54.980;73.388;2023-04-09T02:56:38;15.07;;;4.30;;
50291;SDS011;36190;54.980;73.388;2023-04-09T02:59:05;11.13;;;4.50;;
50291;SDS011;36190;54.980;73.388;2023-04-09T03:01:33;13.00;;;4.15;;
50291;SDS011;36190;54.980;73.388;2023-04-09T03:04:00;11.88;;;4.05;;
50291;SDS011;36190;54.980;73.388;2023-04-09T03:06:28;13.23;;;4.70;;
50291;SDS011;36190;54.980;73.388;2023-04-09T03:08:55;14.27;;;4.63;;
50291;SDS011;36190;54.980;73.388;2023-04-09T03:11:24;22.08;;;4.70;;
50291;SDS011;36190;54.980;73.388;2023-04-09T03:13:52;10.75;;;4.25;;
50291;SDS011;36190;54.980;73.388;2023-04-09T03:16:19;13.52;;;3.85;;
50291;SDS011;36190;54.980;73.388;2023-04-09T03:18:47;12.63;;;4.32;;
50291;SDS011;36190;54.980;73.388;2023-04-09T03:21:14;20.05;;;4.78;;
50291;SDS011;36190;54.980;73.388;2023-04-09T03:23:42;11.98;;;4.25;;
50291;SDS011;36190;54.980;73.388;2023-04-09T03:26:09;12.27;;;3.80;;
50291;SDS011;36190;54.980;73.388;2023-04-09T03:28:38;12.63;;;4.00;;
50291;SDS011;36190;54.980;73.388;2023-04-09T03:31:06;13.18;;;4.90;;
50291;SDS011;36190;54.980;73.388;2023-04-09T03:33:33;14.25;;;4.20;;
50291;SDS011;36190;54.980;73.388;2023-04-09T03:36:00;17.55;;;5.40;;
50291;SDS011;36190;54.980;73.388;2023-04-09T03:38:28;11.57;;;3.75;;
50291;SDS011;36190;54.980;73.388;2023-04-09T03:40:55;17.50;;;4.68;;
50291;SDS011;36190;54.980;73.388;2023-04-09T03:43:23;13.30;;;4.03;;
50291;SDS011;36190;54.980;73.388;2023-04-09T03:45:52;10.32;;;3.75;;
50291;SDS011;36190;54.980;73.388;2023-04-09T03:48:19;12.00;;;4.00;;
50291;SDS011;36190;54.980;73.388;2023-04-09T03:50:46;15.52;;;3.92;;
50291;SDS011;36190;54.980;73.388;2023-04-09T03:53:14;10.02;;;3.72;;
50291;SDS011;36190;54.980;73.388;2023-04-09T03:55:41;8.30;;;3.30;;
50291;SDS011;36190;54.980;73.388;2023-04-09T03:58:09;16.60;;;4.50;;
50291;SDS011;36190;54.980;73.388;2023-04-09T04:00:36;13.15;;;4.35;;
50291;SDS011;36190;54.980;73.388;2023-04-09T04:03:05;14.93;;;4.40;;
50291;SDS011;36190;54.980;73.388;2023-04-09T04:05:32;21.63;;;4.57;;
50291;SDS011;36190;54.980;73.388;2023-04-09T04:08:00;13.02;;;3.88;;
50291;SDS011;36190;54.980;73.388;2023-04-09T04:10:27;10.10;;;3.53;;
50291;SDS011;36190;54.980;73.388;2023-04-09T04:12:55;16.83;;;3.00;;
50291;SDS011;36190;54.980;73.388;2023-04-09T04:15:23;10.75;;;3.67;;
50291;SDS011;36190;54.980;73.388;2023-04-09T04:17:50;8.73;;;3.28;;
50291;SDS011;36190;54.980;73.388;2023-04-09T04:20:19;8.27;;;2.80;;
50291;SDS011;36190;54.980;73.388;2023-04-09T04:22:47;7.70;;;3.00;;
50291;SDS011;36190;54.980;73.388;2023-04-09T04:25:14;9.90;;;3.67;;
50291;SDS011;36190;54.980;73.388;2023-04-09T04:27:42;11.05;;;3.28;;
50291;SDS011;36190;54.980;73.388;2023-04-09T04:30:10;7.55;;;2.88;;
50291;SDS011;36190;54.980;73.388;2023-04-09T04:32:37;12.18;;;2.88;;
50291;SDS011;36190;54.980;73.388;2023-04-09T04:35:05;10.52;;;2.97;;
50291;SDS011;36190;54.980;73.388;2023-04-09T04:37:34;11.13;;;3.42;;
50291;SDS011;36190;54.980;73.388;2023-04-09T04:40:02;15.73;;;3.40;;
50291;SDS011;36190;54.980;73.388;2023-04-09T04:42:30;6.55;;;2.53;;
50291;SDS011;36190;54.980;73.388;2023-04-09T04:44:57;7.00;;;2.60;;
50291;SDS011;36190;54.980;73.388;2023-04-09T04:47:25;11.18;;;3.47;;
50291;SDS011;36190;54.980;73.388;2023-04-09T04:49:52;10.85;;;4.03;;
50291;SDS011;36190;54.980;73.388;2023-04-09T04:52:20;12.48;;;3.85;;
50291;SDS011;36190;54.980;73.388;2023-04-09T04:54:50;12.38;;;4.00;;
50291;SDS011;36190;54.980;73.388;2023-04-09T04:57:17;9.32;;;3.33;;
50291;SDS011;36190;54.980;73.388;2023-04-09T04:59:44;14.35;;;3.97;;
50291;SDS011;36190;54.980;73.388;2023-04-09T05:02:12;11.18;;;4.10;;
50291;SDS011;36190;54.980;73.388;2023-04-09T05:04:40;10.23;;;3.78;;
50291;SDS011;36190;54.980;73.388;2023-04-09T05:07:07;9.45;;;3.70;;
50291;SDS011;36190;54.980;73.388;2023-04-09T05:09:34;8.02;;;2.90;;
50291;SDS011;36190;54.980;73.388;2023-04-09T05:12:03;12.32;;;3.53;;
50291;SDS011;36190;54.980;73.388;2023-04-09T05:14:31;13.57;;;3.10;;
50291;SDS011;36190;54.980;73.388;2023-04-09T05:16:59;11.07;;;3.00;;
50291;SDS011;36190;54.980;73.388;2023-04-09T05:19:26;12.40;;;3.45;;
50291;SDS011;36190;54.980;73.388;2023-04-09T05:21:53;17.65;;;3.70;;
50291;SDS011;36190;54.980;73.388;2023-04-09T05:24:21;14.77;;;3.78;;
50291;SDS011;36190;54.980;73.388;2023-04-09T05:26:49;22.52;;;5.60;;
50291;SDS011;36190;54.980;73.388;2023-04-09T05:29:18;25.90;;;5.05;;
50291;SDS011;36190;54.980;73.388;2023-04-09T05:31:45;15.95;;;4.55;;
50291;SDS011;36190;54.980;73.388;2023-04-09T05:34:12;18.40;;;4.65;;
50291;SDS011;36190;54.980;73.388;2023-04-09T05:36:40;24.15;;;5.22;;
50291;SDS011;36190;54.980;73.388;2023-04-09T05:39:07;28.60;;;6.03;;
50291;SDS011;36190;54.980;73.388;2023-04-09T05:41:35;26.63;;;4.78;;
50291;SDS011;36190;54.980;73.388;2023-04-09T05:44:02;24.80;;;6.22;;
50291;SDS011;36190;54.980;73.388;2023-04-09T05:46:32;22.33;;;5.03;;
50291;SDS011;36190;54.980;73.388;2023-04-09T05:48:59;32.15;;;5.32;;
50291;SDS011;36190;54.980;73.388;2023-04-09T05:51:27;33.85;;;6.38;;
50291;SDS011;36190;54.980;73.388;2023-04-09T05:53:54;29.90;;;5.50;;
50291;SDS011;36190;54.980;73.388;2023-04-09T05:56:22;19.25;;;4.82;;
50291;SDS011;36190;54.980;73.388;2023-04-09T05:58:49;22.83;;;4.97;;
50291;SDS011;36190;54.980;73.388;2023-04-09T06:01:17;26.38;;;5.15;;
50291;SDS011;36190;54.980;73.388;2023-04-09T06:03:46;25.35;;;4.88;;
50291;SDS011;36190;54.980;73.388;2023-04-09T06:06:13;19.80;;;4.78;;
50291;SDS011;36190;54.980;73.388;2023-04-09T06:08:41;16.13;;;5.32;;
50291;SDS011;36190;54.980;73.388;2023-04-09T06:11:09;23.17;;;4.30;;
50291;SDS011;36190;54.980;73.388;2023-04-09T06:13:36;22.17;;;5.03;;
50291;SDS011;36190;54.980;73.388;2023-04-09T06:16:04;28.40;;;5.55;;
50291;SDS011;36190;54.980;73.388;2023-04-09T06:18:32;22.75;;;4.45;;
50291;SDS011;36190;54.980;73.388;2023-04-09T06:21:02;17.25;;;4.45;;
50291;SDS011;36190;54.980;73.388;2023-04-09T06:23:30;25.95;;;5.00;;
50291;SDS011;36190;54.980;73.388;2023-04-09T06:25:58;19.17;;;4.63;;
50291;SDS011;36190;54.980;73.388;2023-04-09T06:28:27;21.40;;;4.80;;
50291;SDS011;36190;54.980;73.388;2023-04-09T06:30:55;25.80;;;4.65;;
50291;SDS011;36190;54.980;73.388;2023-04-09T06:33:23;22.45;;;5.45;;
50291;SDS011;36190;54.980;73.388;2023-04-09T06:35:51;27.75;;;4.90;;
50291;SDS011;36190;54.980;73.388;2023-04-09T06:38:20;17.52;;;4.38;;
50291;SDS011;36190;54.980;73.388;2023-04-09T06:40:47;18.50;;;4.43;;
50291;SDS011;36190;54.980;73.388;2023-04-09T06:43:16;14.40;;;3.95;;
50291;SDS011;36190;54.980;73.388;2023-04-09T06:45:45;10.30;;;3.55;;
50291;SDS011;36190;54.980;73.388;2023-04-09T06:48:16;13.20;;;4.35;;
50291;SDS011;36190;54.980;73.388;2023-04-09T06:50:43;9.73;;;3.15;;
50291;SDS011;36190;54.980;73.388;2023-04-09T06:53:11;8.40;;;3.05;;
50291;SDS011;36190;54.980;73.388;2023-04-09T06:55:40;5.93;;;2.55;;
50291;SDS011;36190;54.980;73.388;2023-04-09T06:58:07;9.52;;;2.40;;
50291;SDS011;36190;54.980;73.388;2023-04-09T07:00:35;6.00;;;2.20;;
50291;SDS011;36190;54.980;73.388;2023-04-09T07:03:02;6.70;;;2.90;;
50291;SDS011;36190;54.980;73.388;2023-04-09T07:05:33;7.22;;;2.47;;
50291;SDS011;36190;54.980;73.388;2023-04-09T07:08:01;11.55;;;2.60;;
50291;SDS011;36190;54.980;73.388;2023-04-09T07:10:28;15.18;;;2.80;;
50291;SDS011;36190;54.980;73.388;2023-04-09T07:12:57;8.55;;;2.83;;
50291;SDS011;36190;54.980;73.388;2023-04-09T07:15:25;5.15;;;2.25;;
50291;SDS011;36190;54.980;73.388;2023-04-09T07:17:53;9.57;;;2.58;;
50291;SDS011;36190;54.980;73.388;2023-04-09T07:20:21;4.85;;;2.40;;
50291;SDS011;36190;54.980;73.388;2023-04-09T07:22:49;6.75;;;2.20;;
50291;SDS011;36190;54.980;73.388;2023-04-09T07:25:17;4.65;;;1.98;;
50291;SDS011;36190;54.980;73.388;2023-04-09T07:27:45;9.02;;;2.10;;
50291;SDS011;36190;54.980;73.388;2023-04-09T07:30:15;8.05;;;2.13;;
50291;SDS011;36190;54.980;73.388;2023-04-09T07:32:43;8.10;;;2.15;;
50291;SDS011;36190;54.980;73.388;2023-04-09T07:35:10;7.78;;;2.08;;
50291;SDS011;36190;54.980;73.388;2023-04-09T07:37:38;2.65;;;1.88;;
50291;SDS011;36190;54.980;73.388;2023-04-09T07:40:06;6.45;;;2.10;;
50291;SDS011;36190;54.980;73.388;2023-04-09T07:42:35;3.95;;;1.98;;
50291;SDS011;36190;54.980;73.388;2023-04-09T07:45:03;6.82;;;2.67;;
50291;SDS011;36190;54.980;73.388;2023-04-09T07:47:33;4.35;;;1.90;;
50291;SDS011;36190;54.980;73.388;2023-04-09T07:50:00;4.32;;;2.00;;
50291;SDS011;36190;54.980;73.388;2023-04-09T07:52:28;3.60;;;1.80;;
50291;SDS011;36190;54.980;73.388;2023-04-09T07:54:55;5.93;;;2.28;;
50291;SDS011;36190;54.980;73.388;2023-04-09T07:57:23;5.68;;;1.80;;
50291;SDS011;36190;54.980;73.388;2023-04-09T07:59:51;3.50;;;1.85;;
50291;SDS011;36190;54.980;73.388;2023-04-09T08:02:19;5.97;;;2.20;;
50291;SDS011;36190;54.980;73.388;2023-04-09T08:04:48;6.78;;;2.35;;
50291;SDS011;36190;54.980;73.388;2023-04-09T08:07:16;4.22;;;1.90;;
50291;SDS011;36190;54.980;73.388;2023-04-09T08:09:43;5.35;;;2.00;;
50291;SDS011;36190;54.980;73.388;2023-04-09T08:12:11;11.55;;;2.40;;
50291;SDS011;36190;54.980;73.388;2023-04-09T08:14:39;5.55;;;2.40;;
50291;SDS011;36190;54.980;73.388;2023-04-09T08:17:06;7.55;;;2.50;;
50291;SDS011;36190;54.980;73.388;2023-04-09T08:19:33;4.53;;;2.30;;
50291;SDS011;36190;54.980;73.388;2023-04-09T08:22:02;4.70;;;2.08;;
50291;SDS011;36190;54.980;73.388;2023-04-09T08:24:30;6.75;;;2.28;;
50291;SDS011;36190;54.980;73.388;2023-04-09T08:26:58;7.35;;;2.33;;
50291;SDS011;36190;54.980;73.388;2023-04-09T08:29:26;4.82;;;2.40;;
50291;SDS011;36190;54.980;73.388;2023-04-09T08:31:56;5.45;;;2.55;;
50291;SDS011;36190;54.980;73.388;2023-04-09T08:34:23;12.18;;;2.25;;
50291;SDS011;36190;54.980;73.388;2023-04-09T08:36:51;4.90;;;1.80;;
50291;SDS011;36190;54.980;73.388;2023-04-09T08:39:20;2.85;;;1.60;;
50291;SDS011;36190;54.980;73.388;2023-04-09T08:41:48;3.55;;;2.03;;
50291;SDS011;36190;54.980;73.388;2023-04-09T08:44:17;6.22;;;2.20;;
50291;SDS011;36190;54.980;73.388;2023-04-09T08:46:46;6.70;;;2.17;;
50291;SDS011;36190;54.980;73.388;2023-04-09T08:49:14;3.60;;;1.83;;
50291;SDS011;36190;54.980;73.388;2023-04-09T08:51:44;3.33;;;1.70;;
50291;SDS011;36190;54.980;73.388;2023-04-09T08:54:13;10.43;;;2.30;;
50291;SDS011;36190;54.980;73.388;2023-04-09T08:56:43;6.43;;;2.00;;
50291;SDS011;36190;54.980;73.388;2023-04-09T08:59:12;2.08;;;1.70;;
50291;SDS011;36190;54.980;73.388;2023-04-09T09:01:42;8.27;;;2.38;;
50291;SDS011;36190;54.980;73.388;2023-04-09T09:04:11;14.00;;;2.42;;
50291;SDS011;36190;54.980;73.388;2023-04-09T09:06:39;3.72;;;1.73;;
50291;SDS011;36190;54.980;73.388;2023-04-09T09:09:07;2.00;;;1.50;;
50291;SDS011;36190;54.980;73.388;2023-04-09T09:11:36;8.73;;;2.20;;
50291;SDS011;36190;54.980;73.388;2023-04-09T09:14:07;7.28;;;2.22;;
50291;SDS011;36190;54.980;73.388;2023-04-09T09:16:36;5.15;;;1.90;;
50291;SDS011;36190;54.980;73.388;2023-04-09T09:19:07;5.25;;;2.17;;
50291;SDS011;36190;54.980;73.388;2023-04-09T09:21:35;10.20;;;2.40;;
50291;SDS011;36190;54.980;73.388;2023-04-09T09:24:06;7.95;;;2.70;;
50291;SDS011;36190;54.980;73.388;2023-04-09T09:26:42;7.00;;;2.05;;
50291;SDS011;36190;54.980;73.388;2023-04-09T09:29:11;10.20;;;2.40;;
50291;SDS011;36190;54.980;73.388;2023-04-09T09:31:44;5.85;;;2.17;;
50291;SDS011;36190;54.980;73.388;2023-04-09T09:34:13;8.05;;;2.70;;
50291;SDS011;36190;54.980;73.388;2023-04-09T09:36:42;6.93;;;2.58;;
50291;SDS011;36190;54.980;73.388;2023-04-09T09:39:11;10.55;;;2.90;;
50291;SDS011;36190;54.980;73.388;2023-04-09T09:41:40;6.13;;;2.45;;
50291;SDS011;36190;54.980;73.388;2023-04-09T09:44:08;6.30;;;2.60;;
50291;SDS011;36190;54.980;73.388;2023-04-09T09:46:37;6.53;;;2.45;;
50291;SDS011;36190;54.980;73.388;2023-04-09T09:49:06;5.63;;;2.40;;
50291;SDS011;36190;54.980;73.388;2023-04-09T09:51:35;7.60;;;2.55;;
50291;SDS011;36190;54.980;73.388;2023-04-09T09:54:05;8.27;;;2.95;;
50291;SDS011;36190;54.980;73.388;2023-04-09T09:56:36;7.78;;;2.47;;
50291;SDS011;36190;54.980;73.388;2023-04-09T09:59:09;7.78;;;2.67;;
50291;SDS011;36190;54.980;73.388;2023-04-09T10:01:43;12.93;;;3.33;;
50291;SDS011;36190;54.980;73.388;2023-04-09T10:04:13;6.47;;;2.78;;
50291;SDS011;36190;54.980;73.388;2023-04-09T10:06:44;5.95;;;2.75;;
50291;SDS011;36190;54.980;73.388;2023-04-09T10:09:11;11.63;;;2.70;;
50291;SDS011;36190;54.980;73.388;2023-04-09T10:11:39;8.93;;;2.65;;
50291;SDS011;36190;54.980;73.388;2023-04-09T10:14:09;16.25;;;3.20;;
50291;SDS011;36190;54.980;73.388;2023-04-09T10:16:37;6.68;;;2.47;;
50291;SDS011;36190;54.980;73.388;2023-04-09T10:19:06;7.20;;;2.47;;
50291;SDS011;36190;54.980;73.388;2023-04-09T10:21:39;7.90;;;2.45;;
50291;SDS011;36190;54.980;73.388;2023-04-09T10:24:11;8.40;;;2.60;;
50291;SDS011;36190;54.980;73.388;2023-04-09T10:26:40;11.45;;;2.78;;
50291;SDS011;36190;54.980;73.388;2023-04-09T10:29:11;9.85;;;2.95;;
50291;SDS011;36190;54.980;73.388;2023-04-09T10:31:51;6.15;;;2.30;;
50291;SDS011;36190;54.980;73.388;2023-04-09T10:34:22;8.23;;;2.50;;
50291;SDS011;36190;54.980;73.388;2023-04-09T10:36:55;6.38;;;2.38;;
50291;SDS011;36190;54.980;73.388;2023-04-09T10:39:25;4.38;;;2.22;;
50291;SDS011;36190;54.980;73.388;2023-04-09T10:41:54;14.38;;;2.97;;
50291;SDS011;36190;54.980;73.388;2023-04-09T10:44:24;4.53;;;2.05;;
50291;SDS011;36190;54.980;73.388;2023-04-09T10:46:55;3.13;;;2.05;;
50291;SDS011;36190;54.980;73.388;2023-04-09T10:49:25;8.10;;;2.30;;
50291;SDS011;36190;54.980;73.388;2023-04-09T10:51:53;7.75;;;2.33;;
50291;SDS011;36190;54.980;73.388;2023-04-09T10:54:37;8.73;;;2.05;;
50291;SDS011;36190;54.980;73.388;2023-04-09T10:57:13;5.53;;;2.33;;
50291;SDS011;36190;54.980;73.388;2023-04-09T10:59:45;13.20;;;2.90;;
50291;SDS011;36190;54.980;73.388;2023-04-09T11:05:20;9.35;;;2.40;;
50291;SDS011;36190;54.980;73.388;2023-04-09T11:07:52;6.60;;;2.53;;
50291;SDS011;36190;54.980;73.388;2023-04-09T11:10:24;8.52;;;2.65;;
50291;SDS011;36190;54.980;73.388;2023-04-09T11:12:52;5.95;;;2.15;;
50291;SDS011;36190;54.980;73.388;2023-04-09T11:15:20;18.52;;;3.20;;
50291;SDS011;36190;54.980;73.388;2023-04-09T11:17:48;9.20;;;2.45;;
50291;SDS011;36190;54.980;73.388;2023-04-09T11:20:16;11.82;;;3.00;;
50291;SDS011;36190;54.980;73.388;2023-04-09T11:22:48;8.60;;;2.72;;
50291;SDS011;36190;54.980;73.388;2023-04-09T11:25:19;6.85;;;2.60;;
50291;SDS011;36190;54.980;73.388;2023-04-09T11:27:47;5.40;;;2.58;;
50291;SDS011;36190;54.980;73.388;2023-04-09T11:30:15;5.15;;;2.22;;
50291;SDS011;36190;54.980;73.388;2023-04-09T11:32:42;8.95;;;2.92;;
50291;SDS011;36190;54.980;73.388;2023-04-09T11:35:11;6.13;;;2.45;;
50291;SDS011;36190;54.980;73.388;2023-04-09T11:37:41;13.15;;;3.70;;
50291;SDS011;36190;54.980;73.388;2023-04-09T11:40:13;7.70;;;2.78;;
50291;SDS011;36190;54.980;73.388;2023-04-09T11:42:42;18.85;;;3.78;;
50291;SDS011;36190;54.980;73.388;2023-04-09T11:45:10;10.30;;;2.78;;
50291;SDS011;36190;54.980;73.388;2023-04-09T11:47:39;9.77;;;2.65;;
50291;SDS011;36190;54.980;73.388;2023-04-09T11:50:07;7.72;;;2.58;;
50291;SDS011;36190;54.980;73.388;2023-04-09T11:52:36;5.47;;;2.10;;
50291;SDS011;36190;54.980;73.388;2023-04-09T11:55:07;10.90;;;2.70;;
50291;SDS011;36190;54.980;73.388;2023-04-09T11:57:36;11.73;;;2.80;;
50291;SDS011;36190;54.980;73.388;2023-04-09T12:00:07;9.18;;;2.60;;
50291;SDS011;36190;54.980;73.388;2023-04-09T12:02:37;9.07;;;2.78;;
50291;SDS011;36190;54.980;73.388;2023-04-09T12:05:07;4.55;;;2.25;;
50291;SDS011;36190;54.980;73.388;2023-04-09T12:07:38;7.00;;;2.30;;
50291;SDS011;36190;54.980;73.388;2023-04-09T12:10:08;12.20;;;2.88;;
50291;SDS011;36190;54.980;73.388;2023-04-09T12:12:42;6.85;;;2.60;;
50291;SDS011;36190;54.980;73.388;2023-04-09T12:15:20;8.77;;;2.50;;
50291;SDS011;36190;54.980;73.388;2023-04-09T12:17:48;10.18;;;2.63;;
50291;SDS011;36190;54.980;73.388;2023-04-09T12:20:27;8.20;;;2.60;;
50291;SDS011;36190;54.980;73.388;2023-04-09T12:22:57;7.75;;;2.60;;
50291;SDS011;36190;54.980;73.388;2023-04-09T12:25:28;7.40;;;2.72;;
50291;SDS011;36190;54.980;73.388;2023-04-09T12:27:56;8.45;;;2.70;;
50291;SDS011;36190;54.980;73.388;2023-04-09T12:30:24;9.57;;;2.42;;
50291;SDS011;36190;54.980;73.388;2023-04-09T12:32:52;11.77;;;3.47;;
50291;SDS011;36190;54.980;73.388;2023-04-09T12:35:20;4.65;;;2.20;;
50291;SDS011;36190;54.980;73.388;2023-04-09T12:37:48;7.50;;;2.47;;
50291;SDS011;36190;54.980;73.388;2023-04-09T12:40:16;8.32;;;2.42;;
50291;SDS011;36190;54.980;73.388;2023-04-09T12:42:46;7.45;;;2.75;;
50291;SDS011;36190;54.980;73.388;2023-04-09T12:45:14;5.95;;;2.63;;
50291;SDS011;36190;54.980;73.388;2023-04-09T12:47:43;7.45;;;3.00;;
50291;SDS011;36190;54.980;73.388;2023-04-09T12:50:11;9.13;;;2.95;;
50291;SDS011;36190;54.980;73.388;2023-04-09T12:52:40;8.73;;;3.13;;
50291;SDS011;36190;54.980;73.388;2023-04-09T12:55:08;11.30;;;3.00;;
50291;SDS011;36190;54.980;73.388;2023-04-09T12:57:36;11.57;;;2.75;;
50291;SDS011;36190;54.980;73.388;2023-04-09T13:00:06;11.15;;;2.92;;
50291;SDS011;36190;54.980;73.388;2023-04-09T13:02:34;7.80;;;3.05;;
50291;SDS011;36190;54.980;73.388;2023-04-09T13:05:02;13.27;;;3.17;;
50291;SDS011;36190;54.980;73.388;2023-04-09T13:07:30;11.18;;;3.17;;
50291;SDS011;36190;54.980;73.388;2023-04-09T13:09:58;11.75;;;3.60;;
50291;SDS011;36190;54.980;73.388;2023-04-09T13:12:25;12.73;;;2.90;;
50291;SDS011;36190;54.980;73.388;2023-04-09T13:14:53;10.02;;;3.20;;
50291;SDS011;36190;54.980;73.388;2023-04-09T13:17:22;14.90;;;2.70;;
50291;SDS011;36190;54.980;73.388;2023-04-09T13:19:49;8.65;;;2.70;;
50291;SDS011;36190;54.980;73.388;2023-04-09T13:22:17;9.50;;;2.78;;
50291;SDS011;36190;54.980;73.388;2023-04-09T13:24:45;8.80;;;2.60;;
50291;SDS011;36190;54.980;73.388;2023-04-09T13:27:13;7.78;;;2.88;;
50291;SDS011;36190;54.980;73.388;2023-04-09T13:29:40;6.00;;;2.80;;
50291;SDS011;36190;54.980;73.388;2023-04-09T13:32:08;6.93;;;3.00;;
50291;SDS011;36190;54.980;73.388;2023-04-09T13:34:37;14.70;;;3.10;;
50291;SDS011;36190;54.980;73.388;2023-04-09T13:37:05;13.40;;;4.03;;
50291;SDS011;36190;54.980;73.388;2023-04-09T13:39:33;19.02;;;4.10;;
50291;SDS011;36190;54.980;73.388;2023-04-09T13:42:00;14.18;;;3.90;;
50291;SDS011;36190;54.980;73.388;2023-04-09T13:44:28;13.73;;;3.33;;
50291;SDS011;36190;54.980;73.388;2023-04-09T13:46:55;12.70;;;3.10;;
50291;SDS011;36190;54.980;73.388;2023-04-09T13:49:23;15.95;;;3.25;;
50291;SDS011;36190;54.980;73.388;2023-04-09T13:51:52;9.02;;;2.80;;
50291;SDS011;36190;54.980;73.388;2023-04-09T13:54:20;10.38;;;2.78;;
50291;SDS011;36190;54.980;73.388;2023-04-09T13:56:48;15.95;;;3.63;;
50291;SDS011;36190;54.980;73.388;2023-04-09T13:59:16;13.38;;;3.28;;
50291;SDS011;36190;54.980;73.388;2023-04-09T14:01:43;12.85;;;3.47;;
50291;SDS011;36190;54.980;73.388;2023-04-09T14:04:11;12.07;;;3.97;;
50291;SDS011;36190;54.980;73.388;2023-04-09T14:06:38;9.73;;;3.58;;
50291;SDS011;36190;54.980;73.388;2023-04-09T14:09:09;13.55;;;4.10;;
50291;SDS011;36190;54.980;73.388;2023-04-09T14:11:37;17.17;;;4.43;;
50291;SDS011;36190;54.980;73.388;2023-04-09T14:14:05;13.43;;;3.70;;
50291;SDS011;36190;54.980;73.388;2023-04-09T14:16:32;11.85;;;3.50;;
50291;SDS011;36190;54.980;73.388;2023-04-09T14:19:00;11.20;;;3.63;;
50291;SDS011;36190;54.980;73.388;2023-04-09T14:21:27;14.30;;;4.18;;
50291;SDS011;36190;54.980;73.388;2023-04-09T14:23:55;12.23;;;3.88;;
50291;SDS011;36190;54.980;73.388;2023-04-09T14:26:24;10.50;;;4.18;;
50291;SDS011;36190;54.980;73.388;2023-04-09T14:28:53;15.88;;;4.47;;
50291;SDS011;36190;54.980;73.388;2023-04-09T14:31:20;18.27;;;5.00;;
50291;SDS011;36190;54.980;73.388;2023-04-09T14:33:49;17.60;;;4.85;;
50291;SDS011;36190;54.980;73.388;2023-04-09T14:36:16;17.85;;;6.10;;
50291;SDS011;36190;54.980;73.388;2023-04-09T14:38:44;17.63;;;7.82;;
50291;SDS011;36190;54.980;73.388;2023-04-09T14:41:12;23.30;;;10.00;;
50291;SDS011;36190;54.980;73.388;2023-04-09T14:43:41;23.77;;;11.27;;